sensor_id;sensor_type;location;lat;lon;timestamp;temperature;humidity
39919;DHT22;25589;51.552;13.424;2023-07-22T00:01:16;16.30;99.90
39919;DHT22;25589;51.552;13.424;2023-07-22T00:03:41;16.30;99.90
39919;DHT22;25589;51.552;13.424;2023-07-22T00:06:08;16.20;99.90
39919;DHT22;25589;51.552;13.424;2023-07-22T00:08:35;16.20;99.90
39919;DHT22;25589;51.552;13.424;2023-07-22T00:11:00;16.20;99.90
39919;DHT22;25589;51.552;13.424;2023-07-22T00:13:26;16.20;99.90
39919;DHT22;25589;51.552;13.424;2023-07-22T00:15:56;16.10;99.90
39919;DHT22;25589;51.552;13.424;2023-07-22T00:18:22;15.60;99.90
39919;DHT22;25589;51.552;13.424;2023-07-22T00:20:49;16.20;99.90
39919;DHT22;25589;51.552;13.424;2023-07-22T00:23:17;16.00;99.90
39919;DHT22;25589;51.552;13.424;2023-07-22T00:25:43;16.00;99.90
39919;DHT22;25589;51.552;13.424;2023-07-22T00:28:08;16.20;99.90
39919;DHT22;25589;51.552;13.424;2023-07-22T00:30:34;16.20;99.90
39919;DHT22;25589;51.552;13.424;2023-07-22T00:33:00;16.00;99.90
39919;DHT22;25589;51.552;13.424;2023-07-22T00:35:26;16.20;99.90
39919;DHT22;25589;51.552;13.424;2023-07-22T00:37:52;16.10;99.90
39919;DHT22;25589;51.552;13.424;2023-07-22T00:40:18;16.30;99.90
39919;DHT22;25589;51.552;13.424;2023-07-22T00:42:44;16.40;99.90
39919;DHT22;25589;51.552;13.424;2023-07-22T00:45:10;16.20;99.90
39919;DHT22;25589;51.552;13.424;2023-07-22T00:47:36;16.10;99.90
39919;DHT22;25589;51.552;13.424;2023-07-22T00:50:03;16.10;99.90
39919;DHT22;25589;51.552;13.424;2023-07-22T00:52:29;16.20;99.90
39919;DHT22;25589;51.552;13.424;2023-07-22T00:54:55;16.20;99.90
39919;DHT22;25589;51.552;13.424;2023-07-22T00:57:22;15.80;99.90
39919;DHT22;25589;51.552;13.424;2023-07-22T00:59:48;16.10;99.90
39919;DHT22;25589;51.552;13.424;2023-07-22T01:02:13;16.20;99.90
39919;DHT22;25589;51.552;13.424;2023-07-22T01:04:39;16.10;99.90
39919;DHT22;25589;51.552;13.424;2023-07-22T01:07:06;16.10;99.90
39919;DHT22;25589;51.552;13.424;2023-07-22T01:12:06;16.10;99.90
39919;DHT22;25589;51.552;13.424;2023-07-22T01:14:39;16.00;99.90
39919;DHT22;25589;51.552;13.424;2023-07-22T01:17:08;16.00;99.90
39919;DHT22;25589;51.552;13.424;2023-07-22T01:19:34;16.10;99.90
39919;DHT22;25589;51.552;13.424;2023-07-22T01:22:02;15.60;99.90
39919;DHT22;25589;51.552;13.424;2023-07-22T01:24:32;15.90;99.90
39919;DHT22;25589;51.552;13.424;2023-07-22T01:26:57;15.90;99.90
39919;DHT22;25589;51.552;13.424;2023-07-22T01:29:24;15.90;99.90
39919;DHT22;25589;51.552;13.424;2023-07-22T01:31:54;15.80;99.90
39919;DHT22;25589;51.552;13.424;2023-07-22T01:34:21;16.30;99.90
39919;DHT22;25589;51.552;13.424;2023-07-22T01:36:47;16.20;99.90
39919;DHT22;25589;51.552;13.424;2023-07-22T01:39:14;15.70;99.90
39919;DHT22;25589;51.552;13.424;2023-07-22T01:41:40;15.70;99.90
39919;DHT22;25589;51.552;13.424;2023-07-22T01:44:06;15.40;99.90
39919;DHT22;25589;51.552;13.424;2023-07-22T01:46:31;15.60;99.90
39919;DHT22;25589;51.552;13.424;2023-07-22T01:48:57;15.90;99.90
39919;DHT22;25589;51.552;13.424;2023-07-22T01:51:23;15.60;99.90
39919;DHT22;25589;51.552;13.424;2023-07-22T01:53:48;15.60;99.90
39919;DHT22;25589;51.552;13.424;2023-07-22T01:56:15;15.60;99.90
39919;DHT22;25589;51.552;13.424;2023-07-22T02:01:08;15.40;99.90
39919;DHT22;25589;51.552;13.424;2023-07-22T02:03:34;15.50;99.90
39919;DHT22;25589;51.552;13.424;2023-07-22T02:06:05;15.40;99.90
39919;DHT22;25589;51.552;13.424;2023-07-22T02:08:31;15.60;99.90
39919;DHT22;25589;51.552;13.424;2023-07-22T02:11:04;15.10;99.90
39919;DHT22;25589;51.552;13.424;2023-07-22T02:13:32;15.40;99.90
39919;DHT22;25589;51.552;13.424;2023-07-22T02:15:58;15.40;99.90
39919;DHT22;25589;51.552;13.424;2023-07-22T02:18:24;15.40;99.90
39919;DHT22;25589;51.552;13.424;2023-07-22T02:20:49;15.30;99.90
39919;DHT22;25589;51.552;13.424;2023-07-22T02:23:15;15.30;99.90
39919;DHT22;25589;51.552;13.424;2023-07-22T02:25:41;15.20;99.90
39919;DHT22;25589;51.552;13.424;2023-07-22T02:28:06;15.10;99.90
39919;DHT22;25589;51.552;13.424;2023-07-22T02:30:36;14.70;99.90
39919;DHT22;25589;51.552;13.424;2023-07-22T02:33:02;15.10;99.90
39919;DHT22;25589;51.552;13.424;2023-07-22T02:35:28;15.00;99.90
39919;DHT22;25589;51.552;13.424;2023-07-22T02:37:54;15.00;99.90
39919;DHT22;25589;51.552;13.424;2023-07-22T02:40:19;15.00;99.90
39919;DHT22;25589;51.552;13.424;2023-07-22T02:42:45;15.10;99.90
39919;DHT22;25589;51.552;13.424;2023-07-22T02:45:11;15.00;99.90
39919;DHT22;25589;51.552;13.424;2023-07-22T02:47:38;14.90;99.90
39919;DHT22;25589;51.552;13.424;2023-07-22T02:50:05;14.90;99.90
39919;DHT22;25589;51.552;13.424;2023-07-22T02:52:31;15.00;99.90
39919;DHT22;25589;51.552;13.424;2023-07-22T02:55:14;14.90;99.90
39919;DHT22;25589;51.552;13.424;2023-07-22T02:57:44;14.80;99.90
39919;DHT22;25589;51.552;13.424;2023-07-22T03:00:12;14.80;99.90
39919;DHT22;25589;51.552;13.424;2023-07-22T03:02:39;15.00;99.90
39919;DHT22;25589;51.552;13.424;2023-07-22T03:05:06;14.60;99.90
39919;DHT22;25589;51.552;13.424;2023-07-22T03:07:40;14.80;99.90
39919;DHT22;25589;51.552;13.424;2023-07-22T03:10:06;14.80;99.90
39919;DHT22;25589;51.552;13.424;2023-07-22T03:14:58;14.30;99.90
39919;DHT22;25589;51.552;13.424;2023-07-22T03:17:24;14.70;99.90
39919;DHT22;25589;51.552;13.424;2023-07-22T03:19:50;14.30;99.90
39919;DHT22;25589;51.552;13.424;2023-07-22T03:22:17;14.60;99.90
39919;DHT22;25589;51.552;13.424;2023-07-22T03:24:43;14.70;99.90
39919;DHT22;25589;51.552;13.424;2023-07-22T03:27:10;14.50;99.90
39919;DHT22;25589;51.552;13.424;2023-07-22T03:29:35;14.60;99.90
39919;DHT22;25589;51.552;13.424;2023-07-22T03:32:01;14.60;99.90
39919;DHT22;25589;51.552;13.424;2023-07-22T03:34:27;15.20;99.90
39919;DHT22;25589;51.552;13.424;2023-07-22T03:36:53;14.60;99.90
39919;DHT22;25589;51.552;13.424;2023-07-22T03:39:19;14.60;99.90
39919;DHT22;25589;51.552;13.424;2023-07-22T03:41:45;14.60;99.90
39919;DHT22;25589;51.552;13.424;2023-07-22T03:44:11;14.70;99.90
39919;DHT22;25589;51.552;13.424;2023-07-22T03:46:38;14.70;99.90
39919;DHT22;25589;51.552;13.424;2023-07-22T03:49:03;14.80;99.90
39919;DHT22;25589;51.552;13.424;2023-07-22T03:51:29;14.70;99.90
39919;DHT22;25589;51.552;13.424;2023-07-22T03:53:54;14.80;99.90
39919;DHT22;25589;51.552;13.424;2023-07-22T03:56:20;15.10;99.90
39919;DHT22;25589;51.552;13.424;2023-07-22T03:58:46;14.90;99.90
39919;DHT22;25589;51.552;13.424;2023-07-22T04:01:12;14.90;99.90
39919;DHT22;25589;51.552;13.424;2023-07-22T04:03:38;14.90;99.90
39919;DHT22;25589;51.552;13.424;2023-07-22T04:06:04;14.90;99.90
39919;DHT22;25589;51.552;13.424;2023-07-22T04:08:29;15.00;99.90
39919;DHT22;25589;51.552;13.424;2023-07-22T04:10:56;15.00;99.90
39919;DHT22;25589;51.552;13.424;2023-07-22T04:13:23;15.10;99.90
39919;DHT22;25589;51.552;13.424;2023-07-22T04:15:50;15.10;99.90
39919;DHT22;25589;51.552;13.424;2023-07-22T04:18:17;15.20;99.90
39919;DHT22;25589;51.552;13.424;2023-07-22T04:20:43;15.20;99.90
39919;DHT22;25589;51.552;13.424;2023-07-22T04:23:09;15.70;99.90
39919;DHT22;25589;51.552;13.424;2023-07-22T04:25:43;15.30;99.90
39919;DHT22;25589;51.552;13.424;2023-07-22T04:28:09;14.90;99.90
39919;DHT22;25589;51.552;13.424;2023-07-22T04:30:37;15.40;99.90
39919;DHT22;25589;51.552;13.424;2023-07-22T04:33:03;15.40;99.90
39919;DHT22;25589;51.552;13.424;2023-07-22T04:35:36;15.40;99.90
39919;DHT22;25589;51.552;13.424;2023-07-22T04:38:02;15.40;99.90
39919;DHT22;25589;51.552;13.424;2023-07-22T04:40:28;15.50;99.90
39919;DHT22;25589;51.552;13.424;2023-07-22T04:42:56;15.50;99.90
39919;DHT22;25589;51.552;13.424;2023-07-22T04:45:22;15.50;99.90
39919;DHT22;25589;51.552;13.424;2023-07-22T04:47:49;15.50;99.90
39919;DHT22;25589;51.552;13.424;2023-07-22T04:50:16;15.40;99.90
39919;DHT22;25589;51.552;13.424;2023-07-22T04:55:09;15.10;99.90
39919;DHT22;25589;51.552;13.424;2023-07-22T04:57:36;15.30;99.90
39919;DHT22;25589;51.552;13.424;2023-07-22T05:00:05;15.60;99.90
39919;DHT22;25589;51.552;13.424;2023-07-22T05:02:32;15.50;99.90
39919;DHT22;25589;51.552;13.424;2023-07-22T05:04:57;15.60;99.90
39919;DHT22;25589;51.552;13.424;2023-07-22T05:07:24;15.60;99.90
39919;DHT22;25589;51.552;13.424;2023-07-22T05:09:50;15.50;99.90
39919;DHT22;25589;51.552;13.424;2023-07-22T05:12:17;15.20;99.90
39919;DHT22;25589;51.552;13.424;2023-07-22T05:14:42;16.10;99.90
39919;DHT22;25589;51.552;13.424;2023-07-22T05:17:08;15.50;99.90
39919;DHT22;25589;51.552;13.424;2023-07-22T05:19:33;15.50;99.90
39919;DHT22;25589;51.552;13.424;2023-07-22T05:21:59;15.60;99.90
39919;DHT22;25589;51.552;13.424;2023-07-22T05:24:24;15.60;99.90
39919;DHT22;25589;51.552;13.424;2023-07-22T05:26:50;15.60;99.90
39919;DHT22;25589;51.552;13.424;2023-07-22T05:29:15;15.60;99.90
39919;DHT22;25589;51.552;13.424;2023-07-22T05:31:41;16.10;99.90
39919;DHT22;25589;51.552;13.424;2023-07-22T05:34:07;15.40;99.90
39919;DHT22;25589;51.552;13.424;2023-07-22T05:36:32;15.70;99.90
39919;DHT22;25589;51.552;13.424;2023-07-22T05:38:58;15.70;99.90
39919;DHT22;25589;51.552;13.424;2023-07-22T05:41:24;15.80;99.90
39919;DHT22;25589;51.552;13.424;2023-07-22T05:43:49;15.80;99.90
39919;DHT22;25589;51.552;13.424;2023-07-22T05:46:15;15.90;99.90
39919;DHT22;25589;51.552;13.424;2023-07-22T05:48:40;16.00;99.90
39919;DHT22;25589;51.552;13.424;2023-07-22T05:51:06;16.20;99.90
39919;DHT22;25589;51.552;13.424;2023-07-22T05:53:32;16.00;99.90
39919;DHT22;25589;51.552;13.424;2023-07-22T05:58:24;16.20;99.90
39919;DHT22;25589;51.552;13.424;2023-07-22T06:00:50;16.10;99.90
39919;DHT22;25589;51.552;13.424;2023-07-22T06:03:17;16.30;99.90
39919;DHT22;25589;51.552;13.424;2023-07-22T06:05:43;15.90;99.90
39919;DHT22;25589;51.552;13.424;2023-07-22T06:08:08;16.20;99.90
39919;DHT22;25589;51.552;13.424;2023-07-22T06:10:34;16.30;99.90
39919;DHT22;25589;51.552;13.424;2023-07-22T06:13:00;16.30;99.90
39919;DHT22;25589;51.552;13.424;2023-07-22T06:15:25;16.30;99.90
39919;DHT22;25589;51.552;13.424;2023-07-22T06:17:51;16.40;99.90
39919;DHT22;25589;51.552;13.424;2023-07-22T06:20:16;16.40;99.90
39919;DHT22;25589;51.552;13.424;2023-07-22T06:22:42;16.80;99.90
39919;DHT22;25589;51.552;13.424;2023-07-22T06:25:08;16.70;99.90
39919;DHT22;25589;51.552;13.424;2023-07-22T06:27:34;16.50;99.90
39919;DHT22;25589;51.552;13.424;2023-07-22T06:30:00;16.50;99.90
39919;DHT22;25589;51.552;13.424;2023-07-22T06:32:26;16.50;99.90
39919;DHT22;25589;51.552;13.424;2023-07-22T06:34:51;16.60;99.90
39919;DHT22;25589;51.552;13.424;2023-07-22T06:37:17;16.70;99.90
39919;DHT22;25589;51.552;13.424;2023-07-22T06:39:42;16.80;99.90
39919;DHT22;25589;51.552;13.424;2023-07-22T06:42:08;16.90;99.90
39919;DHT22;25589;51.552;13.424;2023-07-22T06:44:34;17.00;99.90
39919;DHT22;25589;51.552;13.424;2023-07-22T06:46:59;17.00;99.90
39919;DHT22;25589;51.552;13.424;2023-07-22T06:49:25;17.10;99.90
39919;DHT22;25589;51.552;13.424;2023-07-22T06:51:50;17.20;99.90
39919;DHT22;25589;51.552;13.424;2023-07-22T06:54:17;17.30;99.90
39919;DHT22;25589;51.552;13.424;2023-07-22T06:56:42;17.30;99.90
39919;DHT22;25589;51.552;13.424;2023-07-22T06:59:08;17.40;99.90
39919;DHT22;25589;51.552;13.424;2023-07-22T07:01:34;17.50;99.90
39919;DHT22;25589;51.552;13.424;2023-07-22T07:03:59;17.70;99.90
39919;DHT22;25589;51.552;13.424;2023-07-22T07:06:25;17.50;99.90
39919;DHT22;25589;51.552;13.424;2023-07-22T07:08:50;17.40;99.90
39919;DHT22;25589;51.552;13.424;2023-07-22T07:11:17;17.60;99.90
39919;DHT22;25589;51.552;13.424;2023-07-22T07:13:43;17.70;99.90
39919;DHT22;25589;51.552;13.424;2023-07-22T07:16:25;17.70;99.90
39919;DHT22;25589;51.552;13.424;2023-07-22T07:18:51;17.70;99.90
39919;DHT22;25589;51.552;13.424;2023-07-22T07:21:18;17.80;99.90
39919;DHT22;25589;51.552;13.424;2023-07-22T07:23:44;17.80;99.90
39919;DHT22;25589;51.552;13.424;2023-07-22T07:26:09;17.90;99.90
39919;DHT22;25589;51.552;13.424;2023-07-22T07:28:35;17.90;99.90
39919;DHT22;25589;51.552;13.424;2023-07-22T07:31:01;18.10;99.90
39919;DHT22;25589;51.552;13.424;2023-07-22T07:33:26;18.10;99.90
39919;DHT22;25589;51.552;13.424;2023-07-22T07:35:52;18.30;99.90
39919;DHT22;25589;51.552;13.424;2023-07-22T07:38:17;18.30;99.90
39919;DHT22;25589;51.552;13.424;2023-07-22T07:40:43;18.30;99.90
39919;DHT22;25589;51.552;13.424;2023-07-22T07:43:08;18.40;99.90
39919;DHT22;25589;51.552;13.424;2023-07-22T07:45:37;18.40;99.90
39919;DHT22;25589;51.552;13.424;2023-07-22T07:48:04;18.50;99.90
39919;DHT22;25589;51.552;13.424;2023-07-22T07:50:29;18.50;99.90
39919;DHT22;25589;51.552;13.424;2023-07-22T07:52:55;18.50;99.90
39919;DHT22;25589;51.552;13.424;2023-07-22T07:55:20;18.80;99.90
39919;DHT22;25589;51.552;13.424;2023-07-22T07:57:46;18.70;99.90
39919;DHT22;25589;51.552;13.424;2023-07-22T08:00:12;18.80;99.90
39919;DHT22;25589;51.552;13.424;2023-07-22T08:02:37;18.80;99.90
39919;DHT22;25589;51.552;13.424;2023-07-22T08:05:03;18.90;99.90
39919;DHT22;25589;51.552;13.424;2023-07-22T08:07:29;19.20;99.90
39919;DHT22;25589;51.552;13.424;2023-07-22T08:09:54;19.00;99.90
39919;DHT22;25589;51.552;13.424;2023-07-22T08:12:20;19.30;99.90
39919;DHT22;25589;51.552;13.424;2023-07-22T08:14:46;19.20;99.90
39919;DHT22;25589;51.552;13.424;2023-07-22T08:17:12;19.40;99.90
39919;DHT22;25589;51.552;13.424;2023-07-22T08:19:37;19.40;99.90
39919;DHT22;25589;51.552;13.424;2023-07-22T08:22:03;19.40;99.90
39919;DHT22;25589;51.552;13.424;2023-07-22T08:24:29;19.40;99.90
39919;DHT22;25589;51.552;13.424;2023-07-22T08:26:54;19.40;99.90
39919;DHT22;25589;51.552;13.424;2023-07-22T08:29:20;19.60;99.90
39919;DHT22;25589;51.552;13.424;2023-07-22T08:31:46;19.80;99.90
39919;DHT22;25589;51.552;13.424;2023-07-22T08:34:11;19.90;99.90
39919;DHT22;25589;51.552;13.424;2023-07-22T08:36:37;20.00;99.90
39919;DHT22;25589;51.552;13.424;2023-07-22T08:39:02;20.00;99.90
39919;DHT22;25589;51.552;13.424;2023-07-22T08:41:29;20.30;99.90
39919;DHT22;25589;51.552;13.424;2023-07-22T08:43:58;20.20;99.90
39919;DHT22;25589;51.552;13.424;2023-07-22T08:46:28;20.10;99.90
39919;DHT22;25589;51.552;13.424;2023-07-22T08:48:54;20.30;99.90
39919;DHT22;25589;51.552;13.424;2023-07-22T08:51:21;20.20;99.90
39919;DHT22;25589;51.552;13.424;2023-07-22T08:53:49;20.20;99.90
39919;DHT22;25589;51.552;13.424;2023-07-22T08:56:16;20.20;99.90
39919;DHT22;25589;51.552;13.424;2023-07-22T08:58:42;20.30;99.90
39919;DHT22;25589;51.552;13.424;2023-07-22T09:01:09;20.30;99.90
39919;DHT22;25589;51.552;13.424;2023-07-22T09:03:35;20.40;99.90
39919;DHT22;25589;51.552;13.424;2023-07-22T09:06:01;20.60;99.90
39919;DHT22;25589;51.552;13.424;2023-07-22T09:08:29;20.60;99.90
39919;DHT22;25589;51.552;13.424;2023-07-22T09:10:55;20.40;99.90
39919;DHT22;25589;51.552;13.424;2023-07-22T09:13:22;20.40;99.90
39919;DHT22;25589;51.552;13.424;2023-07-22T09:15:49;20.20;99.90
39919;DHT22;25589;51.552;13.424;2023-07-22T09:18:16;20.20;99.90
39919;DHT22;25589;51.552;13.424;2023-07-22T09:20:41;20.20;99.90
39919;DHT22;25589;51.552;13.424;2023-07-22T09:23:07;20.40;99.90
39919;DHT22;25589;51.552;13.424;2023-07-22T09:25:33;20.40;99.90
39919;DHT22;25589;51.552;13.424;2023-07-22T09:28:00;20.30;99.90
39919;DHT22;25589;51.552;13.424;2023-07-22T09:30:30;20.60;99.90
39919;DHT22;25589;51.552;13.424;2023-07-22T09:33:01;20.30;99.90
39919;DHT22;25589;51.552;13.424;2023-07-22T09:35:42;20.30;99.90
39919;DHT22;25589;51.552;13.424;2023-07-22T09:38:08;20.40;99.90
39919;DHT22;25589;51.552;13.424;2023-07-22T09:40:34;20.50;99.90
39919;DHT22;25589;51.552;13.424;2023-07-22T09:43:03;20.60;99.90
39919;DHT22;25589;51.552;13.424;2023-07-22T09:45:31;20.70;99.90
39919;DHT22;25589;51.552;13.424;2023-07-22T09:47:58;20.80;99.90
39919;DHT22;25589;51.552;13.424;2023-07-22T09:50:26;21.00;99.90
39919;DHT22;25589;51.552;13.424;2023-07-22T09:52:54;21.10;99.90
39919;DHT22;25589;51.552;13.424;2023-07-22T09:55:22;21.10;99.90
39919;DHT22;25589;51.552;13.424;2023-07-22T09:58:14;21.00;99.90
39919;DHT22;25589;51.552;13.424;2023-07-22T10:00:42;21.00;99.90
39919;DHT22;25589;51.552;13.424;2023-07-22T10:03:10;21.00;99.90
39919;DHT22;25589;51.552;13.424;2023-07-22T10:05:38;21.30;99.90
39919;DHT22;25589;51.552;13.424;2023-07-22T10:08:06;21.40;99.90
39919;DHT22;25589;51.552;13.424;2023-07-22T10:10:33;21.70;99.90
39919;DHT22;25589;51.552;13.424;2023-07-22T10:12:59;22.00;99.80
39919;DHT22;25589;51.552;13.424;2023-07-22T10:15:28;22.30;98.30
39919;DHT22;25589;51.552;13.424;2023-07-22T10:17:55;22.50;97.30
39919;DHT22;25589;51.552;13.424;2023-07-22T10:20:22;22.40;97.30
39919;DHT22;25589;51.552;13.424;2023-07-22T10:22:49;22.30;97.30
39919;DHT22;25589;51.552;13.424;2023-07-22T10:25:17;22.10;96.40
39919;DHT22;25589;51.552;13.424;2023-07-22T10:27:43;22.00;96.80
39919;DHT22;25589;51.552;13.424;2023-07-22T10:30:10;21.90;96.00
39919;DHT22;25589;51.552;13.424;2023-07-22T10:32:41;21.90;96.30
39919;DHT22;25589;51.552;13.424;2023-07-22T10:35:12;21.60;96.70
39919;DHT22;25589;51.552;13.424;2023-07-22T10:37:39;21.60;97.00
39919;DHT22;25589;51.552;13.424;2023-07-22T10:40:26;21.60;96.30
39919;DHT22;25589;51.552;13.424;2023-07-22T10:43:06;21.50;96.60
39919;DHT22;25589;51.552;13.424;2023-07-22T10:45:34;22.00;96.20
39919;DHT22;25589;51.552;13.424;2023-07-22T10:53:09;22.50;95.40
39919;DHT22;25589;51.552;13.424;2023-07-22T11:01:23;22.40;93.50
39919;DHT22;25589;51.552;13.424;2023-07-22T11:04:14;22.30;93.60
39919;DHT22;25589;51.552;13.424;2023-07-22T11:11:54;22.50;92.80
39919;DHT22;25589;51.552;13.424;2023-07-22T11:14:23;22.90;92.20
39919;DHT22;25589;51.552;13.424;2023-07-22T11:16:50;23.10;90.80
39919;DHT22;25589;51.552;13.424;2023-07-22T11:19:17;23.30;90.40
39919;DHT22;25589;51.552;13.424;2023-07-22T11:21:44;23.50;90.20
39919;DHT22;25589;51.552;13.424;2023-07-22T11:24:10;23.40;89.00
39919;DHT22;25589;51.552;13.424;2023-07-22T11:26:37;23.20;90.10
39919;DHT22;25589;51.552;13.424;2023-07-22T11:29:04;23.00;89.80
39919;DHT22;25589;51.552;13.424;2023-07-22T11:31:40;23.20;89.50
39919;DHT22;25589;51.552;13.424;2023-07-22T11:34:11;23.60;88.90
39919;DHT22;25589;51.552;13.424;2023-07-22T11:36:37;23.90;87.30
39919;DHT22;25589;51.552;13.424;2023-07-22T11:39:05;24.00;84.10
39919;DHT22;25589;51.552;13.424;2023-07-22T11:41:32;23.90;85.10
39919;DHT22;25589;51.552;13.424;2023-07-22T11:44:02;23.70;84.10
39919;DHT22;25589;51.552;13.424;2023-07-22T11:46:34;23.60;83.80
39919;DHT22;25589;51.552;13.424;2023-07-22T11:49:00;23.50;84.50
39919;DHT22;25589;51.552;13.424;2023-07-22T11:51:26;23.40;83.30
39919;DHT22;25589;51.552;13.424;2023-07-22T11:53:54;23.40;83.10
39919;DHT22;25589;51.552;13.424;2023-07-22T11:56:27;23.30;85.10
39919;DHT22;25589;51.552;13.424;2023-07-22T11:58:55;23.00;83.00
39919;DHT22;25589;51.552;13.424;2023-07-22T12:01:21;23.00;83.60
39919;DHT22;25589;51.552;13.424;2023-07-22T12:03:48;22.80;84.80
39919;DHT22;25589;51.552;13.424;2023-07-22T12:06:14;23.10;86.40
39919;DHT22;25589;51.552;13.424;2023-07-22T12:08:48;23.10;87.10
39919;DHT22;25589;51.552;13.424;2023-07-22T12:13:43;23.20;83.10
39919;DHT22;25589;51.552;13.424;2023-07-22T12:16:12;23.00;82.30
39919;DHT22;25589;51.552;13.424;2023-07-22T12:18:44;22.50;90.80
39919;DHT22;25589;51.552;13.424;2023-07-22T12:21:10;22.50;91.10
39919;DHT22;25589;51.552;13.424;2023-07-22T12:23:37;22.30;92.40
39919;DHT22;25589;51.552;13.424;2023-07-22T12:26:03;22.10;93.30
39919;DHT22;25589;51.552;13.424;2023-07-22T12:28:29;22.00;93.90
39919;DHT22;25589;51.552;13.424;2023-07-22T12:30:54;21.90;94.90
39919;DHT22;25589;51.552;13.424;2023-07-22T12:33:23;21.80;95.50
39919;DHT22;25589;51.552;13.424;2023-07-22T12:35:49;22.00;96.40
39919;DHT22;25589;51.552;13.424;2023-07-22T12:38:15;22.30;96.00
39919;DHT22;25589;51.552;13.424;2023-07-22T12:40:41;22.40;95.90
39919;DHT22;25589;51.552;13.424;2023-07-22T12:43:06;22.50;96.10
39919;DHT22;25589;51.552;13.424;2023-07-22T12:45:33;22.60;95.70
39919;DHT22;25589;51.552;13.424;2023-07-22T12:47:59;22.80;96.10
39919;DHT22;25589;51.552;13.424;2023-07-22T12:50:24;23.20;95.30
39919;DHT22;25589;51.552;13.424;2023-07-22T12:52:50;23.30;95.80
39919;DHT22;25589;51.552;13.424;2023-07-22T12:55:16;23.90;94.00
39919;DHT22;25589;51.552;13.424;2023-07-22T12:57:41;24.20;93.80
39919;DHT22;25589;51.552;13.424;2023-07-22T13:00:07;24.60;93.30
39919;DHT22;25589;51.552;13.424;2023-07-22T13:02:35;24.60;91.90
39919;DHT22;25589;51.552;13.424;2023-07-22T13:05:01;24.40;91.10
39919;DHT22;25589;51.552;13.424;2023-07-22T13:07:27;24.20;90.90
39919;DHT22;25589;51.552;13.424;2023-07-22T13:09:52;24.10;91.50
39919;DHT22;25589;51.552;13.424;2023-07-22T13:12:21;24.30;89.80
39919;DHT22;25589;51.552;13.424;2023-07-22T13:14:47;24.10;84.40
39919;DHT22;25589;51.552;13.424;2023-07-22T13:17:13;23.80;84.30
39919;DHT22;25589;51.552;13.424;2023-07-22T13:19:38;23.70;83.30
39919;DHT22;25589;51.552;13.424;2023-07-22T13:22:04;23.70;84.40
39919;DHT22;25589;51.552;13.424;2023-07-22T13:24:29;24.00;83.10
39919;DHT22;25589;51.552;13.424;2023-07-22T13:26:55;24.30;80.90
39919;DHT22;25589;51.552;13.424;2023-07-22T13:29:21;24.30;78.60
39919;DHT22;25589;51.552;13.424;2023-07-22T13:31:53;24.30;79.10
39919;DHT22;25589;51.552;13.424;2023-07-22T13:34:19;24.40;78.80
39919;DHT22;25589;51.552;13.424;2023-07-22T13:36:45;24.30;78.50
39919;DHT22;25589;51.552;13.424;2023-07-22T13:39:11;24.30;78.00
39919;DHT22;25589;51.552;13.424;2023-07-22T13:41:36;24.30;78.50
39919;DHT22;25589;51.552;13.424;2023-07-22T13:44:02;24.30;78.90
39919;DHT22;25589;51.552;13.424;2023-07-22T13:46:28;24.30;78.60
39919;DHT22;25589;51.552;13.424;2023-07-22T13:48:53;24.20;78.40
39919;DHT22;25589;51.552;13.424;2023-07-22T13:51:19;24.00;78.50
39919;DHT22;25589;51.552;13.424;2023-07-22T13:53:44;23.90;78.60
39919;DHT22;25589;51.552;13.424;2023-07-22T13:56:10;23.90;77.40
39919;DHT22;25589;51.552;13.424;2023-07-22T13:58:35;23.90;79.20
39919;DHT22;25589;51.552;13.424;2023-07-22T14:01:01;24.10;79.30
39919;DHT22;25589;51.552;13.424;2023-07-22T14:03:26;24.20;81.40
39919;DHT22;25589;51.552;13.424;2023-07-22T14:05:52;24.20;83.20
39919;DHT22;25589;51.552;13.424;2023-07-22T14:08:17;24.10;82.60
39919;DHT22;25589;51.552;13.424;2023-07-22T14:10:43;24.10;83.60
39919;DHT22;25589;51.552;13.424;2023-07-22T14:13:08;24.00;84.00
39919;DHT22;25589;51.552;13.424;2023-07-22T14:15:34;24.00;83.60
39919;DHT22;25589;51.552;13.424;2023-07-22T14:18:01;24.10;82.80
39919;DHT22;25589;51.552;13.424;2023-07-22T14:20:27;24.50;83.40
39919;DHT22;25589;51.552;13.424;2023-07-22T14:22:53;24.80;81.30
39919;DHT22;25589;51.552;13.424;2023-07-22T14:25:19;25.10;81.00
39919;DHT22;25589;51.552;13.424;2023-07-22T14:27:44;25.40;80.40
39919;DHT22;25589;51.552;13.424;2023-07-22T14:30:10;25.70;77.90
39919;DHT22;25589;51.552;13.424;2023-07-22T14:32:35;25.80;76.50
39919;DHT22;25589;51.552;13.424;2023-07-22T14:35:01;25.90;76.80
39919;DHT22;25589;51.552;13.424;2023-07-22T14:37:28;26.10;76.20
39919;DHT22;25589;51.552;13.424;2023-07-22T14:39:53;26.40;75.60
39919;DHT22;25589;51.552;13.424;2023-07-22T14:42:19;27.00;73.60
39919;DHT22;25589;51.552;13.424;2023-07-22T14:44:45;26.90;72.80
39919;DHT22;25589;51.552;13.424;2023-07-22T14:47:10;27.00;71.00
39919;DHT22;25589;51.552;13.424;2023-07-22T14:49:36;27.10;70.60
39919;DHT22;25589;51.552;13.424;2023-07-22T14:52:01;27.30;69.80
39919;DHT22;25589;51.552;13.424;2023-07-22T14:54:27;27.40;68.60
39919;DHT22;25589;51.552;13.424;2023-07-22T14:56:53;27.80;67.30
39919;DHT22;25589;51.552;13.424;2023-07-22T14:59:18;27.80;66.30
39919;DHT22;25589;51.552;13.424;2023-07-22T15:01:44;27.70;66.50
39919;DHT22;25589;51.552;13.424;2023-07-22T15:04:09;27.70;65.40
39919;DHT22;25589;51.552;13.424;2023-07-22T15:06:35;28.00;64.80
39919;DHT22;25589;51.552;13.424;2023-07-22T15:09:02;28.40;63.20
39919;DHT22;25589;51.552;13.424;2023-07-22T15:11:32;28.70;62.30
39919;DHT22;25589;51.552;13.424;2023-07-22T15:13:57;28.30;62.30
39919;DHT22;25589;51.552;13.424;2023-07-22T15:16:23;28.30;63.10
39919;DHT22;25589;51.552;13.424;2023-07-22T15:18:48;28.10;63.70
39919;DHT22;25589;51.552;13.424;2023-07-22T15:21:14;27.80;62.70
39919;DHT22;25589;51.552;13.424;2023-07-22T15:23:40;28.10;62.20
39919;DHT22;25589;51.552;13.424;2023-07-22T15:26:05;28.40;62.80
39919;DHT22;25589;51.552;13.424;2023-07-22T15:28:31;28.10;61.20
39919;DHT22;25589;51.552;13.424;2023-07-22T15:30:56;27.90;61.60
39919;DHT22;25589;51.552;13.424;2023-07-22T15:33:22;27.40;61.60
39919;DHT22;25589;51.552;13.424;2023-07-22T15:35:48;27.40;61.90
39919;DHT22;25589;51.552;13.424;2023-07-22T15:38:13;28.00;60.30
39919;DHT22;25589;51.552;13.424;2023-07-22T15:40:39;28.40;59.10
39919;DHT22;25589;51.552;13.424;2023-07-22T15:43:04;28.40;59.30